< < Back
Terminal Aerodrome Forecast


Current Version              Previous Versions:   1  2  3  4  5  6  7  8  9  

Terminal Aerodrome Forecast

292
FTAK31 PAJN 230500
TAFAHN
TAF
PAHN 230523Z 2306/2406 09009KT P6SM VCSH SCT015 BKN025 OVC060
      TEMPO 2306/2308 BKN015 OVC030
     FM231200 30005KT P6SM BKN025 BKN080
     FM231500 30008KT P6SM SCT025 SCT080
     FM240200 29012KT P6SM SCT100
      AMD LTD TO CLD VIS AND WIND=



Latest METAR

377
SAUS70 KWBC 231400
MTRAHN
METAR KAHN 231351Z 05007G15KT 10SM SCT045 BKN075 19/12 A3022 RMK AO2
SLP230 T01890117


USA.gov is the U.S. government's official web portal to all federal, state and local government web resources and services.